createdAt,value
2023-02-16T00:01:19.337Z,9.77
2023-02-16T00:03:47.005Z,10.35
2023-02-16T00:06:16.106Z,9.20
2023-02-16T00:08:45.336Z,9.57
2023-02-16T00:11:38.594Z,10.30
2023-02-16T00:14:09.992Z,12.05
2023-02-16T00:16:37.877Z,10.65
2023-02-16T00:19:17.614Z,11.20
2023-02-16T00:21:45.277Z,11.55
2023-02-16T00:24:12.781Z,11.05
2023-02-16T00:26:42.627Z,11.38
2023-02-16T00:29:13.930Z,11.13
2023-02-16T00:31:41.535Z,11.05
2023-02-16T00:34:29.766Z,11.38
2023-02-16T00:36:58.687Z,12.02
2023-02-16T00:39:26.701Z,11.57
2023-02-16T00:41:57.551Z,11.10
2023-02-16T00:44:31.791Z,10.45
2023-02-16T00:47:02.656Z,12.50
2023-02-16T00:49:30.162Z,11.18
2023-02-16T00:51:57.934Z,11.77
2023-02-16T00:54:25.359Z,10.50
2023-02-16T00:56:53.051Z,11.77
2023-02-16T00:59:23.626Z,12.05
2023-02-16T01:01:51.302Z,10.98
2023-02-16T01:04:23.300Z,11.15
2023-02-16T01:07:08.814Z,11.25
2023-02-16T01:09:54.572Z,11.70
2023-02-16T01:12:23.066Z,12.70
2023-02-16T01:14:55.586Z,12.88
2023-02-16T01:17:24.395Z,12.32
2023-02-16T01:19:52.185Z,12.90
2023-02-16T01:22:20.003Z,12.23
2023-02-16T01:24:47.839Z,14.38
2023-02-16T01:27:15.806Z,13.82
2023-02-16T01:29:43.288Z,13.82
2023-02-16T01:32:13.731Z,12.75
2023-02-16T01:34:41.336Z,12.73
2023-02-16T01:37:15.298Z,12.10
2023-02-16T01:39:43.120Z,12.15
2023-02-16T01:42:19.596Z,12.95
2023-02-16T01:44:50.859Z,12.18
2023-02-16T01:47:31.264Z,11.98
2023-02-16T01:50:00.736Z,13.50
2023-02-16T01:52:34.104Z,12.98
2023-02-16T01:55:06.218Z,12.32
2023-02-16T01:57:41.230Z,12.43
2023-02-16T02:00:16.287Z,12.10
2023-02-16T02:02:49.161Z,13.70
2023-02-16T02:05:36.629Z,12.75
2023-02-16T02:08:17.648Z,13.88
2023-02-16T02:10:56.455Z,13.40
2023-02-16T02:13:30.473Z,13.35
2023-02-16T02:15:59.462Z,13.63
2023-02-16T02:18:28.323Z,12.45
2023-02-16T02:21:34.633Z,13.70
2023-02-16T02:24:33.363Z,13.07
2023-02-16T02:27:14.696Z,12.75
2023-02-16T02:29:55.098Z,13.05
2023-02-16T02:32:32.926Z,13.15
2023-02-16T02:35:13.932Z,11.40
2023-02-16T02:37:49.382Z,14.75
2023-02-16T02:40:28.386Z,13.15
2023-02-16T02:43:09.145Z,13.70
2023-02-16T02:45:42.327Z,14.02
2023-02-16T02:48:10.347Z,12.73
2023-02-16T02:51:02.464Z,13.85
2023-02-16T02:53:30.784Z,16.30
2023-02-16T02:56:17.968Z,13.10
2023-02-16T02:59:06.520Z,14.32
2023-02-16T03:01:38.772Z,13.02
2023-02-16T03:04:09.103Z,11.45
2023-02-16T03:06:39.646Z,14.00
2023-02-16T03:09:11.992Z,12.50
2023-02-16T03:11:57.182Z,13.43
2023-02-16T03:14:31.679Z,13.05
2023-02-16T03:17:18.925Z,13.50
2023-02-16T03:20:07.706Z,9.05
2023-02-16T03:22:53.854Z,14.85
2023-02-16T03:25:41.558Z,11.65
2023-02-16T03:28:28.842Z,14.77
2023-02-16T03:30:58.832Z,14.10
2023-02-16T03:33:27.708Z,15.00
2023-02-16T03:35:55.859Z,11.70
2023-02-16T03:38:23.709Z,15.15
2023-02-16T03:40:53.097Z,13.00
2023-02-16T03:43:20.563Z,12.68
2023-02-16T03:45:48.161Z,10.27
2023-02-16T03:48:17.042Z,14.13
2023-02-16T03:50:44.803Z,14.13
2023-02-16T03:53:12.624Z,12.02
2023-02-16T03:55:42.604Z,15.20
2023-02-16T03:58:12.406Z,13.25
2023-02-16T04:00:40.977Z,11.57
2023-02-16T04:03:09.750Z,13.50
2023-02-16T04:05:39.796Z,13.93
2023-02-16T04:08:07.742Z,14.38
2023-02-16T04:10:35.888Z,14.93
2023-02-16T04:13:02.412Z,13.27
2023-02-16T04:15:31.891Z,11.23
2023-02-16T04:17:59.908Z,13.40
2023-02-16T04:20:29.604Z,13.40
2023-02-16T04:22:58.963Z,11.65
2023-02-16T04:25:27.325Z,11.20
2023-02-16T04:27:55.286Z,13.80
2023-02-16T04:30:24.532Z,11.35
2023-02-16T04:32:52.547Z,13.15
2023-02-16T04:35:21.081Z,10.60
2023-02-16T04:37:49.112Z,11.93
2023-02-16T04:40:19.351Z,10.90
2023-02-16T04:42:47.193Z,13.27
2023-02-16T04:45:15.170Z,12.05
2023-02-16T04:47:42.958Z,12.93
2023-02-16T04:50:11.621Z,14.05
2023-02-16T04:52:39.555Z,15.15
2023-02-16T04:55:10.605Z,11.25
2023-02-16T04:57:39.913Z,10.95
2023-02-16T05:00:09.239Z,13.38
2023-02-16T05:02:36.699Z,10.25
2023-02-16T05:05:04.441Z,12.70
2023-02-16T05:07:31.908Z,10.68
2023-02-16T05:09:59.393Z,11.88
2023-02-16T05:12:44.329Z,11.77
2023-02-16T05:15:13.124Z,12.52
2023-02-16T05:17:40.573Z,14.10
2023-02-16T05:20:08.768Z,12.27
2023-02-16T05:22:38.917Z,12.65
2023-02-16T05:25:06.896Z,10.82
2023-02-16T05:27:34.404Z,12.32
2023-02-16T05:30:01.974Z,10.77
2023-02-16T05:32:30.897Z,9.50
2023-02-16T05:34:58.397Z,10.23
2023-02-16T05:37:26.074Z,10.55
2023-02-16T05:39:53.744Z,11.60
2023-02-16T05:42:21.194Z,11.32
2023-02-16T05:44:48.801Z,11.88
2023-02-16T05:47:16.264Z,11.52
2023-02-16T05:49:45.091Z,13.20
2023-02-16T05:52:12.577Z,9.07
2023-02-16T05:54:40.018Z,9.98
2023-02-16T05:57:07.551Z,10.30
2023-02-16T05:59:35.004Z,11.40
2023-02-16T06:02:02.574Z,12.85
2023-02-16T06:04:30.174Z,14.25
2023-02-16T06:06:59.075Z,9.70
2023-02-16T06:09:26.544Z,13.48
2023-02-16T06:11:54.062Z,12.82
2023-02-16T06:14:22.161Z,12.35
2023-02-16T06:16:52.322Z,11.13
2023-02-16T06:19:21.115Z,9.40
2023-02-16T06:21:49.199Z,11.43
2023-02-16T06:24:17.989Z,14.13
2023-02-16T06:26:45.427Z,13.52
2023-02-16T06:29:12.857Z,12.55
2023-02-16T06:31:40.425Z,10.68
2023-02-16T06:34:08.120Z,11.23
2023-02-16T06:36:35.630Z,11.38
2023-02-16T06:39:03.075Z,13.48
2023-02-16T06:41:32.275Z,11.80
2023-02-16T06:44:00.597Z,11.68
2023-02-16T06:46:28.448Z,12.50
2023-02-16T06:48:56.014Z,9.95
2023-02-16T06:51:23.680Z,13.55
2023-02-16T06:53:51.109Z,11.57
2023-02-16T06:56:18.607Z,10.77
2023-02-16T06:58:47.410Z,11.05
2023-02-16T07:01:14.947Z,14.07
2023-02-16T07:03:42.461Z,12.95
2023-02-16T07:06:09.920Z,10.18
2023-02-16T07:08:37.469Z,11.43
2023-02-16T07:11:05.550Z,13.60
2023-02-16T07:13:36.323Z,10.43
2023-02-16T07:16:05.949Z,11.88
2023-02-16T07:18:34.513Z,17.05
2023-02-16T07:21:02.603Z,10.70
2023-02-16T07:23:30.314Z,11.57
2023-02-16T07:25:57.734Z,12.32
2023-02-16T07:28:25.226Z,11.65
2023-02-16T07:30:53.084Z,10.85
2023-02-16T07:33:21.998Z,14.00
2023-02-16T07:35:50.107Z,10.70
2023-02-16T07:38:17.545Z,11.60
2023-02-16T07:40:44.945Z,13.50
2023-02-16T07:43:12.449Z,9.57
2023-02-16T07:45:40.052Z,14.60
2023-02-16T07:48:07.552Z,12.88
2023-02-16T07:50:37.044Z,12.25
2023-02-16T07:53:04.800Z,10.98
2023-02-16T07:55:32.215Z,12.20
2023-02-16T07:58:00.018Z,13.65
2023-02-16T08:00:27.733Z,9.70
2023-02-16T08:02:55.318Z,10.10
2023-02-16T08:05:23.591Z,11.57
2023-02-16T08:07:52.342Z,12.55
2023-02-16T08:10:20.390Z,13.80
2023-02-16T08:12:49.685Z,13.10
2023-02-16T08:15:17.289Z,11.35
2023-02-16T08:17:44.755Z,11.77
2023-02-16T08:20:12.948Z,12.55
2023-02-16T08:22:40.382Z,13.05
2023-02-16T08:25:09.584Z,12.43
2023-02-16T08:27:37.018Z,12.27
2023-02-16T08:30:05.703Z,10.70
2023-02-16T08:32:33.264Z,12.40
2023-02-16T08:35:00.660Z,11.80
2023-02-16T08:37:28.622Z,12.27
2023-02-16T08:39:56.133Z,11.70
2023-02-16T08:42:24.914Z,13.63
2023-02-16T08:44:52.866Z,12.50
2023-02-16T08:47:20.883Z,13.02
2023-02-16T08:49:48.383Z,14.32
2023-02-16T08:52:15.802Z,13.07
2023-02-16T08:54:43.803Z,10.45
2023-02-16T08:57:11.380Z,11.43
2023-02-16T08:59:40.126Z,12.52
2023-02-16T09:02:07.885Z,13.55
2023-02-16T09:04:36.653Z,13.18
2023-02-16T09:07:04.300Z,12.68
2023-02-16T09:09:31.752Z,12.13
2023-02-16T09:11:59.175Z,14.43
2023-02-16T09:14:27.831Z,12.90
2023-02-16T09:16:57.867Z,13.90
2023-02-16T09:19:25.926Z,12.75
2023-02-16T09:21:56.149Z,14.52
2023-02-16T09:24:23.572Z,11.75
2023-02-16T09:26:51.905Z,13.30
2023-02-16T09:29:19.514Z,13.07
2023-02-16T09:31:47.572Z,10.32
2023-02-16T09:34:19.051Z,10.68
2023-02-16T09:36:47.102Z,8.25
2023-02-16T09:39:16.341Z,12.30
2023-02-16T09:42:00.918Z,11.00
2023-02-16T09:44:37.357Z,11.02
2023-02-16T09:47:10.439Z,11.18
2023-02-16T09:49:43.872Z,11.13
2023-02-16T09:52:20.399Z,9.55
2023-02-16T09:54:51.152Z,9.82
2023-02-16T09:57:27.410Z,10.73
2023-02-16T10:00:00.533Z,7.78
2023-02-16T10:02:41.992Z,7.55
2023-02-16T10:05:27.210Z,8.43
2023-02-16T10:08:02.240Z,7.18
2023-02-16T10:10:41.430Z,7.63
2023-02-16T10:13:16.760Z,6.00
2023-02-16T10:15:46.365Z,6.10
2023-02-16T10:18:22.911Z,7.18
2023-02-16T10:20:55.246Z,6.50
2023-02-16T10:23:35.532Z,6.22
2023-02-16T10:26:11.656Z,8.88
2023-02-16T10:28:46.299Z,6.00
2023-02-16T10:31:19.507Z,6.28
2023-02-16T10:33:58.918Z,5.50
2023-02-16T10:36:38.099Z,6.25
2023-02-16T10:39:17.135Z,6.80
2023-02-16T10:41:48.504Z,6.10
2023-02-16T10:44:22.060Z,6.82
2023-02-16T10:46:55.424Z,6.75
2023-02-16T10:49:22.921Z,5.90
2023-02-16T10:51:54.394Z,8.02
2023-02-16T10:54:27.024Z,7.13
2023-02-16T10:56:57.498Z,6.93
2023-02-16T10:59:27.184Z,7.35
2023-02-16T11:01:57.547Z,6.93
2023-02-16T11:04:47.428Z,6.43
2023-02-16T11:07:18.617Z,7.82
2023-02-16T11:12:26.754Z,8.05
2023-02-16T11:14:56.980Z,6.60
2023-02-16T11:17:25.988Z,6.55
2023-02-16T11:19:56.090Z,7.25
2023-02-16T11:22:38.970Z,6.07
2023-02-16T11:25:24.742Z,6.03
2023-02-16T11:27:54.957Z,6.72
2023-02-16T11:30:32.210Z,7.22
2023-02-16T11:33:02.510Z,7.07
2023-02-16T11:35:32.907Z,6.07
2023-02-16T11:38:02.944Z,7.20
2023-02-16T11:40:34.020Z,6.80
2023-02-16T11:43:03.144Z,8.25
2023-02-16T11:45:33.677Z,9.73
2023-02-16T11:48:03.664Z,6.80
2023-02-16T11:50:32.721Z,5.95
2023-02-16T11:53:17.029Z,7.45
2023-02-16T11:55:46.895Z,7.18
2023-02-16T11:58:20.027Z,6.03
2023-02-16T12:00:59.577Z,8.52
2023-02-16T12:03:44.850Z,8.02
2023-02-16T12:06:30.533Z,7.18
2023-02-16T12:09:14.097Z,6.68
2023-02-16T12:11:49.591Z,5.83
2023-02-16T12:14:34.085Z,5.25
2023-02-16T12:17:17.602Z,6.95
2023-02-16T12:19:47.471Z,7.03
2023-02-16T12:22:34.309Z,6.80
2023-02-16T12:25:26.463Z,5.80
2023-02-16T12:28:07.373Z,7.07
2023-02-16T12:30:48.379Z,6.57
2023-02-16T12:33:32.257Z,6.45
2023-02-16T12:36:24.234Z,6.20
2023-02-16T12:39:00.045Z,7.32
2023-02-16T12:41:45.165Z,6.00
2023-02-16T12:44:17.602Z,6.82
2023-02-16T12:46:49.275Z,5.85
2023-02-16T12:49:24.364Z,6.88
2023-02-16T12:51:57.024Z,6.20
2023-02-16T12:54:29.847Z,5.55
2023-02-16T12:57:02.542Z,5.05
2023-02-16T12:59:38.162Z,5.55
2023-02-16T13:02:13.228Z,5.28
2023-02-16T13:04:47.905Z,6.03
2023-02-16T13:07:22.647Z,5.10
2023-02-16T13:09:59.159Z,5.20
2023-02-16T13:12:32.559Z,5.75
2023-02-16T13:15:11.490Z,4.53
2023-02-16T13:17:42.865Z,6.05
2023-02-16T13:20:16.549Z,6.28
2023-02-16T13:23:21.779Z,6.40
2023-02-16T13:26:06.872Z,6.22
2023-02-16T13:28:51.383Z,5.80
2023-02-16T13:31:36.157Z,4.97
2023-02-16T13:34:29.022Z,6.00
2023-02-16T13:37:22.460Z,5.05
2023-02-16T13:40:06.076Z,4.00
2023-02-16T13:42:58.851Z,4.88
2023-02-16T13:45:31.211Z,5.10
2023-02-16T13:48:00.172Z,4.18
2023-02-16T13:50:33.821Z,3.63
2023-02-16T13:53:16.769Z,3.95
2023-02-16T13:55:44.837Z,3.85
2023-02-16T13:58:30.750Z,3.20
2023-02-16T14:00:59.917Z,3.85
2023-02-16T14:03:39.175Z,4.35
2023-02-16T14:06:36.947Z,3.50
2023-02-16T14:09:40.882Z,3.50
2023-02-16T14:12:17.973Z,3.87
2023-02-16T14:14:58.234Z,5.57
2023-02-16T14:17:30.928Z,4.75
2023-02-16T14:20:00.801Z,5.07
2023-02-16T14:22:35.144Z,5.05
2023-02-16T14:25:06.543Z,4.50
2023-02-16T14:27:43.081Z,5.53
2023-02-16T14:30:19.533Z,5.70
2023-02-16T14:32:52.077Z,4.78
2023-02-16T14:35:25.374Z,5.20
2023-02-16T14:37:57.218Z,4.50
2023-02-16T14:40:42.210Z,5.20
2023-02-16T14:43:21.558Z,5.30
2023-02-16T14:46:34.845Z,4.90
2023-02-16T14:49:38.916Z,4.93
2023-02-16T14:52:35.852Z,6.53
2023-02-16T14:55:23.319Z,5.25
2023-02-16T14:57:54.304Z,5.32
2023-02-16T15:00:29.524Z,5.78
2023-02-16T15:02:59.622Z,6.20
2023-02-16T15:05:32.754Z,5.77
2023-02-16T15:08:09.392Z,6.07
2023-02-16T15:10:39.620Z,5.63
2023-02-16T15:13:07.455Z,5.90
2023-02-16T15:15:45.660Z,5.32
2023-02-16T15:18:17.183Z,5.33
2023-02-16T15:20:49.024Z,4.57
2023-02-16T15:23:21.642Z,5.78
2023-02-16T15:25:58.512Z,5.68
2023-02-16T15:28:27.652Z,5.15
2023-02-16T15:30:58.137Z,5.60
2023-02-16T15:33:36.263Z,5.60
2023-02-16T15:36:08.853Z,6.28
2023-02-16T15:38:39.562Z,5.53
2023-02-16T15:41:08.987Z,4.53
2023-02-16T15:43:39.850Z,4.43
2023-02-16T15:46:14.652Z,4.75
2023-02-16T15:48:42.122Z,4.40
2023-02-16T15:51:14.874Z,5.07
2023-02-16T15:53:51.311Z,4.93
2023-02-16T15:56:31.057Z,5.67
2023-02-16T15:59:01.496Z,4.90
2023-02-16T16:01:37.193Z,4.88
2023-02-16T16:04:08.998Z,3.95
2023-02-16T16:06:40.849Z,5.30
2023-02-16T16:09:14.669Z,4.63
2023-02-16T16:11:42.189Z,5.80
2023-02-16T16:14:11.716Z,4.10
2023-02-16T16:16:39.565Z,5.85
2023-02-16T16:19:17.145Z,5.10
2023-02-16T16:21:54.079Z,5.18
2023-02-16T16:24:35.066Z,4.28
2023-02-16T16:27:06.016Z,5.20
2023-02-16T16:29:37.106Z,5.65
2023-02-16T16:32:06.163Z,6.00
2023-02-16T16:34:38.649Z,6.15
2023-02-16T16:37:19.040Z,6.30
2023-02-16T16:40:00.744Z,5.82
2023-02-16T16:42:28.529Z,5.63
2023-02-16T16:45:02.153Z,5.50
2023-02-16T16:47:36.949Z,7.00
2023-02-16T16:50:28.188Z,5.75
2023-02-16T16:52:57.967Z,6.55
2023-02-16T16:55:32.315Z,5.72
2023-02-16T16:58:03.180Z,6.25
2023-02-16T17:00:34.353Z,8.07
2023-02-16T17:03:02.451Z,7.85
2023-02-16T17:05:30.046Z,7.20
2023-02-16T17:07:58.886Z,7.82
2023-02-16T17:10:27.044Z,4.38
2023-02-16T17:12:57.599Z,7.18
2023-02-16T17:15:43.010Z,6.10
2023-02-16T17:18:15.351Z,6.28
2023-02-16T17:20:43.155Z,7.25
2023-02-16T17:23:14.439Z,7.13
2023-02-16T17:25:42.726Z,8.80
2023-02-16T17:28:11.430Z,8.63
2023-02-16T17:30:39.131Z,8.02
2023-02-16T17:33:07.722Z,8.18
2023-02-16T17:35:37.368Z,8.27
2023-02-16T17:38:08.829Z,6.40
2023-02-16T17:40:39.203Z,7.65
2023-02-16T17:43:12.546Z,7.45
2023-02-16T17:45:39.979Z,7.70
2023-02-16T17:48:07.460Z,7.07
2023-02-16T17:50:34.912Z,6.70
2023-02-16T17:53:02.504Z,7.43
2023-02-16T17:55:29.970Z,6.97
2023-02-16T17:57:58.739Z,6.55
2023-02-16T18:00:26.273Z,8.90
2023-02-16T18:02:53.695Z,7.30
2023-02-16T18:05:21.090Z,7.72
2023-02-16T18:07:48.473Z,8.40
2023-02-16T18:10:20.649Z,5.80
2023-02-16T18:12:48.333Z,8.55
2023-02-16T18:15:18.924Z,8.65
2023-02-16T18:17:46.457Z,8.77
2023-02-16T18:20:16.757Z,6.47
2023-02-16T18:22:44.300Z,7.25
2023-02-16T18:25:12.043Z,6.20
2023-02-16T18:27:39.565Z,6.70
2023-02-16T18:30:09.820Z,8.13
2023-02-16T18:32:41.792Z,8.25
2023-02-16T18:35:10.677Z,6.88
2023-02-16T18:37:38.369Z,8.43
2023-02-16T18:40:08.991Z,8.38
2023-02-16T18:42:37.271Z,7.05
2023-02-16T18:45:06.688Z,5.93
2023-02-16T18:47:34.605Z,7.18
2023-02-16T18:50:03.700Z,6.53
2023-02-16T18:52:31.389Z,7.00
2023-02-16T18:54:59.137Z,7.00
2023-02-16T18:57:26.795Z,5.88
2023-02-16T18:59:54.549Z,5.43
2023-02-16T19:02:22.328Z,5.03
2023-02-16T19:04:49.923Z,5.93
2023-02-16T19:07:19.302Z,19.27
2023-02-16T19:09:47.005Z,8.68
2023-02-16T19:12:16.105Z,7.43
2023-02-16T19:14:43.708Z,5.93
2023-02-16T19:17:11.246Z,5.13
2023-02-16T19:19:39.267Z,6.20
2023-02-16T19:22:07.265Z,5.68
2023-02-16T19:24:36.826Z,6.50
2023-02-16T19:27:04.761Z,6.45
2023-02-16T19:29:32.459Z,6.35
2023-02-16T19:32:00.146Z,5.90
2023-02-16T19:34:27.833Z,5.80
2023-02-16T19:36:55.422Z,6.90
2023-02-16T19:39:24.700Z,7.25
2023-02-16T19:41:53.948Z,7.18
2023-02-16T19:44:22.017Z,7.80
2023-02-16T19:46:49.974Z,6.35
2023-02-16T19:49:20.936Z,5.88
2023-02-16T19:51:49.006Z,7.53
2023-02-16T19:54:16.693Z,7.65
2023-02-16T19:56:44.264Z,6.15
2023-02-16T19:59:15.427Z,6.70
2023-02-16T20:01:43.378Z,8.20
2023-02-16T20:04:12.869Z,7.75
2023-02-16T20:06:41.769Z,6.90
2023-02-16T20:09:13.298Z,6.85
2023-02-16T20:11:41.994Z,7.38
2023-02-16T20:14:09.593Z,5.00
2023-02-16T20:16:38.582Z,5.88
2023-02-16T20:19:06.283Z,6.28
2023-02-16T20:21:34.391Z,6.80
2023-02-16T20:24:03.892Z,5.50
2023-02-16T20:26:34.517Z,6.03
2023-02-16T20:29:02.839Z,4.45
2023-02-16T20:31:33.317Z,6.57
2023-02-16T20:34:02.929Z,4.35
2023-02-16T20:36:31.496Z,6.78
2023-02-16T20:38:59.206Z,6.07
2023-02-16T20:41:26.992Z,4.80
2023-02-16T20:43:55.094Z,6.15
2023-02-16T20:46:23.880Z,5.03
2023-02-16T20:48:51.750Z,5.30
2023-02-16T20:51:21.139Z,6.78
2023-02-16T20:53:48.955Z,6.28
2023-02-16T20:56:20.053Z,6.95
2023-02-16T20:58:49.060Z,5.15
2023-02-16T21:01:21.949Z,6.65
2023-02-16T21:03:49.833Z,5.68
2023-02-16T21:06:17.913Z,6.50
2023-02-16T21:08:47.511Z,5.28
2023-02-16T21:11:15.882Z,5.85
2023-02-16T21:13:43.930Z,6.60
2023-02-16T21:16:12.057Z,5.68
2023-02-16T21:18:40.688Z,7.50
2023-02-16T21:21:15.416Z,6.28
2023-02-16T21:23:43.416Z,6.30
2023-02-16T21:26:12.516Z,5.35
2023-02-16T21:28:41.492Z,6.35
2023-02-16T21:31:12.193Z,6.65
2023-02-16T21:33:40.244Z,7.05
2023-02-16T21:36:10.919Z,6.05
2023-02-16T21:38:40.132Z,7.57
2023-02-16T21:41:27.536Z,7.15
2023-02-16T21:44:00.713Z,7.22
2023-02-16T21:46:30.360Z,7.13
2023-02-16T21:48:57.553Z,8.43
2023-02-16T21:51:28.823Z,8.07
2023-02-16T21:53:56.523Z,7.40
2023-02-16T21:56:29.155Z,6.18
2023-02-16T21:59:02.954Z,8.18
2023-02-16T22:01:33.019Z,8.52
2023-02-16T22:04:01.936Z,7.05
2023-02-16T22:06:33.070Z,5.38
2023-02-16T22:09:01.001Z,7.95
2023-02-16T22:11:28.722Z,5.30
2023-02-16T22:13:59.349Z,6.07
2023-02-16T22:16:27.993Z,5.68
2023-02-16T22:18:58.773Z,6.65
2023-02-16T22:21:26.757Z,6.30
2023-02-16T22:23:55.247Z,8.10
2023-02-16T22:26:24.819Z,7.10
2023-02-16T22:28:52.302Z,5.72
2023-02-16T22:31:22.734Z,6.68
2023-02-16T22:33:56.352Z,7.82
2023-02-16T22:36:23.823Z,7.07
2023-02-16T22:38:52.650Z,7.95
2023-02-16T22:41:21.310Z,8.65
2023-02-16T22:43:52.794Z,8.30
2023-02-16T22:46:22.220Z,7.53
2023-02-16T22:48:49.762Z,6.75
2023-02-16T22:51:18.488Z,8.52
2023-02-16T22:53:46.642Z,8.85
2023-02-16T22:56:16.026Z,7.90
2023-02-16T22:58:43.522Z,6.93
2023-02-16T23:01:12.750Z,7.25
2023-02-16T23:03:42.113Z,7.57
2023-02-16T23:06:14.572Z,8.27
2023-02-16T23:08:42.076Z,7.78
2023-02-16T23:11:09.585Z,7.22
2023-02-16T23:13:37.884Z,6.88
2023-02-16T23:16:07.500Z,7.60
2023-02-16T23:18:35.335Z,8.98
2023-02-16T23:21:08.551Z,6.57
2023-02-16T23:23:36.657Z,8.65
2023-02-16T23:26:07.036Z,6.00
2023-02-16T23:28:34.977Z,8.80
2023-02-16T23:31:02.519Z,7.43
2023-02-16T23:33:30.089Z,6.22
2023-02-16T23:35:57.730Z,8.77
2023-02-16T23:38:26.972Z,7.88
2023-02-16T23:40:58.463Z,6.97
2023-02-16T23:43:26.333Z,7.05
2023-02-16T23:45:54.448Z,7.82
2023-02-16T23:48:22.334Z,6.75
2023-02-16T23:50:50.467Z,5.10
2023-02-16T23:53:18.472Z,4.63
2023-02-16T23:55:57.730Z,4.53
2023-02-16T23:58:27.167Z,5.82
